sensor_id;sensor_type;location;lat;lon;timestamp;P1;durP1;ratioP1;P2;durP2;ratioP2
71475;SDS011;59286;59.274;17.974;2022-08-06T00:01:40;2.42;;;0.60;;
71475;SDS011;59286;59.274;17.974;2022-08-06T00:04:06;2.00;;;0.60;;
71475;SDS011;59286;59.274;17.974;2022-08-06T00:06:31;2.97;;;0.80;;
71475;SDS011;59286;59.274;17.974;2022-08-06T00:08:57;2.65;;;0.70;;
71475;SDS011;59286;59.274;17.974;2022-08-06T00:11:22;2.30;;;0.60;;
71475;SDS011;59286;59.274;17.974;2022-08-06T00:13:49;5.18;;;0.77;;
71475;SDS011;59286;59.274;17.974;2022-08-06T00:16:14;4.63;;;0.73;;
71475;SDS011;59286;59.274;17.974;2022-08-06T00:18:40;4.03;;;0.70;;
71475;SDS011;59286;59.274;17.974;2022-08-06T00:21:05;3.08;;;0.70;;
71475;SDS011;59286;59.274;17.974;2022-08-06T00:23:31;6.70;;;0.80;;
71475;SDS011;59286;59.274;17.974;2022-08-06T00:25:56;3.55;;;0.95;;
71475;SDS011;59286;59.274;17.974;2022-08-06T00:28:22;3.55;;;0.80;;
71475;SDS011;59286;59.274;17.974;2022-08-06T00:30:49;4.05;;;0.52;;
71475;SDS011;59286;59.274;17.974;2022-08-06T00:33:14;5.03;;;0.80;;
71475;SDS011;59286;59.274;17.974;2022-08-06T00:35:40;4.88;;;0.80;;
71475;SDS011;59286;59.274;17.974;2022-08-06T00:38:05;3.08;;;0.82;;
71475;SDS011;59286;59.274;17.974;2022-08-06T00:40:31;4.32;;;0.80;;
71475;SDS011;59286;59.274;17.974;2022-08-06T00:42:57;4.55;;;1.02;;
71475;SDS011;59286;59.274;17.974;2022-08-06T00:45:24;3.30;;;0.85;;
71475;SDS011;59286;59.274;17.974;2022-08-06T00:47:50;4.85;;;0.82;;
71475;SDS011;59286;59.274;17.974;2022-08-06T00:50:16;6.20;;;0.80;;
71475;SDS011;59286;59.274;17.974;2022-08-06T00:52:41;2.92;;;0.95;;
71475;SDS011;59286;59.274;17.974;2022-08-06T00:55:09;3.80;;;1.00;;
71475;SDS011;59286;59.274;17.974;2022-08-06T00:57:34;4.97;;;0.80;;
71475;SDS011;59286;59.274;17.974;2022-08-06T00:59:59;4.68;;;0.80;;
71475;SDS011;59286;59.274;17.974;2022-08-06T01:02:25;4.47;;;0.90;;
71475;SDS011;59286;59.274;17.974;2022-08-06T01:04:50;3.35;;;0.80;;
71475;SDS011;59286;59.274;17.974;2022-08-06T01:07:16;3.75;;;0.80;;
71475;SDS011;59286;59.274;17.974;2022-08-06T01:09:41;6.40;;;0.95;;
71475;SDS011;59286;59.274;17.974;2022-08-06T01:12:06;3.80;;;0.90;;
71475;SDS011;59286;59.274;17.974;2022-08-06T01:14:32;4.30;;;1.00;;
71475;SDS011;59286;59.274;17.974;2022-08-06T01:16:59;3.90;;;1.00;;
71475;SDS011;59286;59.274;17.974;2022-08-06T01:19:45;5.75;;;0.95;;
71475;SDS011;59286;59.274;17.974;2022-08-06T01:27:58;4.97;;;1.30;;
71475;SDS011;59286;59.274;17.974;2022-08-06T01:30:32;4.47;;;1.17;;
71475;SDS011;59286;59.274;17.974;2022-08-06T01:35:40;1.77;;;0.77;;
71475;SDS011;59286;59.274;17.974;2022-08-06T01:38:20;3.10;;;1.20;;
71475;SDS011;59286;59.274;17.974;2022-08-06T01:41:08;4.55;;;1.00;;
71475;SDS011;59286;59.274;17.974;2022-08-06T01:43:36;2.45;;;0.90;;
71475;SDS011;59286;59.274;17.974;2022-08-06T01:46:03;4.47;;;1.10;;
71475;SDS011;59286;59.274;17.974;2022-08-06T01:48:30;4.90;;;0.90;;
71475;SDS011;59286;59.274;17.974;2022-08-06T01:51:01;4.38;;;1.17;;
71475;SDS011;59286;59.274;17.974;2022-08-06T01:53:30;5.43;;;1.27;;
71475;SDS011;59286;59.274;17.974;2022-08-06T01:56:06;4.32;;;0.90;;
71475;SDS011;59286;59.274;17.974;2022-08-06T01:58:34;5.55;;;0.90;;
71475;SDS011;59286;59.274;17.974;2022-08-06T02:01:06;5.35;;;0.90;;
71475;SDS011;59286;59.274;17.974;2022-08-06T02:03:38;3.10;;;0.88;;
71475;SDS011;59286;59.274;17.974;2022-08-06T02:06:08;3.13;;;0.95;;
71475;SDS011;59286;59.274;17.974;2022-08-06T02:08:36;4.40;;;1.20;;
71475;SDS011;59286;59.274;17.974;2022-08-06T02:11:04;4.40;;;1.50;;
71475;SDS011;59286;59.274;17.974;2022-08-06T02:13:32;3.65;;;1.00;;
71475;SDS011;59286;59.274;17.974;2022-08-06T02:16:00;4.13;;;1.05;;
71475;SDS011;59286;59.274;17.974;2022-08-06T02:18:29;4.53;;;1.10;;
71475;SDS011;59286;59.274;17.974;2022-08-06T02:20:57;4.03;;;1.15;;
71475;SDS011;59286;59.274;17.974;2022-08-06T02:23:25;5.32;;;1.17;;
71475;SDS011;59286;59.274;17.974;2022-08-06T02:25:53;5.60;;;1.30;;
71475;SDS011;59286;59.274;17.974;2022-08-06T02:28:20;9.30;;;1.58;;
71475;SDS011;59286;59.274;17.974;2022-08-06T02:30:49;4.82;;;1.30;;
71475;SDS011;59286;59.274;17.974;2022-08-06T02:33:17;4.45;;;1.63;;
71475;SDS011;59286;59.274;17.974;2022-08-06T02:38:20;3.55;;;1.27;;
71475;SDS011;59286;59.274;17.974;2022-08-06T02:40:53;7.10;;;1.20;;
71475;SDS011;59286;59.274;17.974;2022-08-06T02:43:23;5.10;;;1.50;;
71475;SDS011;59286;59.274;17.974;2022-08-06T02:46:03;4.15;;;1.13;;
71475;SDS011;59286;59.274;17.974;2022-08-06T02:48:54;2.72;;;1.00;;
71475;SDS011;59286;59.274;17.974;2022-08-06T02:51:31;3.38;;;1.05;;
71475;SDS011;59286;59.274;17.974;2022-08-06T02:54:04;3.28;;;1.35;;
71475;SDS011;59286;59.274;17.974;2022-08-06T02:56:33;2.25;;;1.02;;
71475;SDS011;59286;59.274;17.974;2022-08-06T02:59:04;3.58;;;1.33;;
71475;SDS011;59286;59.274;17.974;2022-08-06T03:01:37;6.40;;;1.15;;
71475;SDS011;59286;59.274;17.974;2022-08-06T03:04:05;4.18;;;1.40;;
71475;SDS011;59286;59.274;17.974;2022-08-06T03:06:33;4.97;;;1.50;;
71475;SDS011;59286;59.274;17.974;2022-08-06T03:09:02;3.25;;;1.25;;
71475;SDS011;59286;59.274;17.974;2022-08-06T03:11:29;4.72;;;1.58;;
71475;SDS011;59286;59.274;17.974;2022-08-06T03:13:58;4.05;;;1.20;;
71475;SDS011;59286;59.274;17.974;2022-08-06T03:16:26;10.75;;;1.60;;
71475;SDS011;59286;59.274;17.974;2022-08-06T03:18:54;9.75;;;1.70;;
71475;SDS011;59286;59.274;17.974;2022-08-06T03:21:21;4.03;;;1.55;;
71475;SDS011;59286;59.274;17.974;2022-08-06T03:23:48;5.70;;;1.45;;
71475;SDS011;59286;59.274;17.974;2022-08-06T03:26:16;8.98;;;1.35;;
71475;SDS011;59286;59.274;17.974;2022-08-06T03:28:43;4.35;;;1.23;;
71475;SDS011;59286;59.274;17.974;2022-08-06T03:31:09;4.60;;;1.33;;
71475;SDS011;59286;59.274;17.974;2022-08-06T03:33:36;7.65;;;1.60;;
71475;SDS011;59286;59.274;17.974;2022-08-06T03:36:02;7.07;;;1.60;;
71475;SDS011;59286;59.274;17.974;2022-08-06T03:38:31;8.48;;;1.63;;
71475;SDS011;59286;59.274;17.974;2022-08-06T03:41:02;6.72;;;1.40;;
71475;SDS011;59286;59.274;17.974;2022-08-06T03:43:28;8.25;;;1.75;;
71475;SDS011;59286;59.274;17.974;2022-08-06T03:45:56;3.97;;;1.42;;
71475;SDS011;59286;59.274;17.974;2022-08-06T03:48:26;9.20;;;1.40;;
71475;SDS011;59286;59.274;17.974;2022-08-06T03:50:54;4.78;;;1.67;;
71475;SDS011;59286;59.274;17.974;2022-08-06T03:53:22;4.05;;;1.42;;
71475;SDS011;59286;59.274;17.974;2022-08-06T03:55:50;5.65;;;1.40;;
71475;SDS011;59286;59.274;17.974;2022-08-06T03:58:17;10.40;;;1.75;;
71475;SDS011;59286;59.274;17.974;2022-08-06T04:00:46;7.15;;;1.70;;
71475;SDS011;59286;59.274;17.974;2022-08-06T04:03:15;4.07;;;1.45;;
71475;SDS011;59286;59.274;17.974;2022-08-06T04:05:42;9.88;;;1.60;;
71475;SDS011;59286;59.274;17.974;2022-08-06T04:08:09;5.38;;;1.42;;
71475;SDS011;59286;59.274;17.974;2022-08-06T04:10:39;6.28;;;1.58;;
71475;SDS011;59286;59.274;17.974;2022-08-06T04:13:08;5.35;;;1.50;;
71475;SDS011;59286;59.274;17.974;2022-08-06T04:15:35;8.82;;;1.80;;
71475;SDS011;59286;59.274;17.974;2022-08-06T04:18:02;4.65;;;1.48;;
71475;SDS011;59286;59.274;17.974;2022-08-06T04:20:29;4.50;;;1.65;;
71475;SDS011;59286;59.274;17.974;2022-08-06T04:22:57;5.55;;;1.20;;
71475;SDS011;59286;59.274;17.974;2022-08-06T04:25:22;6.13;;;1.60;;
71475;SDS011;59286;59.274;17.974;2022-08-06T04:27:52;5.28;;;1.50;;
71475;SDS011;59286;59.274;17.974;2022-08-06T04:30:19;5.60;;;1.42;;
71475;SDS011;59286;59.274;17.974;2022-08-06T04:32:47;8.18;;;1.50;;
71475;SDS011;59286;59.274;17.974;2022-08-06T04:35:13;5.95;;;1.50;;
71475;SDS011;59286;59.274;17.974;2022-08-06T04:37:40;6.22;;;1.48;;
71475;SDS011;59286;59.274;17.974;2022-08-06T04:40:07;9.35;;;1.67;;
71475;SDS011;59286;59.274;17.974;2022-08-06T04:42:34;5.88;;;1.23;;
71475;SDS011;59286;59.274;17.974;2022-08-06T04:44:59;9.23;;;1.58;;
71475;SDS011;59286;59.274;17.974;2022-08-06T04:47:26;10.23;;;1.50;;
71475;SDS011;59286;59.274;17.974;2022-08-06T04:49:54;5.15;;;1.25;;
71475;SDS011;59286;59.274;17.974;2022-08-06T04:52:23;7.90;;;1.42;;
71475;SDS011;59286;59.274;17.974;2022-08-06T04:54:50;4.15;;;1.30;;
71475;SDS011;59286;59.274;17.974;2022-08-06T04:57:15;8.90;;;1.60;;
71475;SDS011;59286;59.274;17.974;2022-08-06T04:59:41;6.47;;;1.52;;
71475;SDS011;59286;59.274;17.974;2022-08-06T05:02:06;11.07;;;1.42;;
71475;SDS011;59286;59.274;17.974;2022-08-06T05:04:32;9.52;;;1.50;;
71475;SDS011;59286;59.274;17.974;2022-08-06T05:07:05;10.32;;;1.40;;
71475;SDS011;59286;59.274;17.974;2022-08-06T05:09:37;7.55;;;1.33;;
71475;SDS011;59286;59.274;17.974;2022-08-06T05:12:04;6.47;;;1.30;;
71475;SDS011;59286;59.274;17.974;2022-08-06T05:14:39;8.00;;;2.10;;
71475;SDS011;59286;59.274;17.974;2022-08-06T05:17:09;7.30;;;1.30;;
71475;SDS011;59286;59.274;17.974;2022-08-06T05:19:44;7.20;;;1.65;;
71475;SDS011;59286;59.274;17.974;2022-08-06T05:22:15;5.93;;;1.20;;
71475;SDS011;59286;59.274;17.974;2022-08-06T05:24:43;10.38;;;1.38;;
71475;SDS011;59286;59.274;17.974;2022-08-06T05:27:09;8.48;;;1.40;;
71475;SDS011;59286;59.274;17.974;2022-08-06T05:29:35;7.60;;;1.63;;
71475;SDS011;59286;59.274;17.974;2022-08-06T05:32:01;8.50;;;1.40;;
71475;SDS011;59286;59.274;17.974;2022-08-06T05:34:27;8.77;;;1.33;;
71475;SDS011;59286;59.274;17.974;2022-08-06T05:36:53;4.95;;;1.50;;
71475;SDS011;59286;59.274;17.974;2022-08-06T05:39:19;9.82;;;1.60;;
71475;SDS011;59286;59.274;17.974;2022-08-06T05:41:45;7.15;;;1.48;;
71475;SDS011;59286;59.274;17.974;2022-08-06T05:44:11;8.30;;;1.75;;
71475;SDS011;59286;59.274;17.974;2022-08-06T05:46:37;10.77;;;1.45;;
71475;SDS011;59286;59.274;17.974;2022-08-06T05:49:49;9.73;;;1.55;;
71475;SDS011;59286;59.274;17.974;2022-08-06T05:59:50;9.65;;;1.58;;
71475;SDS011;59286;59.274;17.974;2022-08-06T06:02:21;7.25;;;1.67;;
71475;SDS011;59286;59.274;17.974;2022-08-06T06:04:48;5.15;;;1.25;;
71475;SDS011;59286;59.274;17.974;2022-08-06T06:07:14;6.30;;;1.42;;
71475;SDS011;59286;59.274;17.974;2022-08-06T06:09:41;12.65;;;1.70;;
71475;SDS011;59286;59.274;17.974;2022-08-06T06:12:11;7.72;;;1.55;;
71475;SDS011;59286;59.274;17.974;2022-08-06T06:14:41;8.45;;;1.20;;
71475;SDS011;59286;59.274;17.974;2022-08-06T06:17:19;10.40;;;1.80;;
71475;SDS011;59286;59.274;17.974;2022-08-06T06:22:59;5.13;;;1.60;;
71475;SDS011;59286;59.274;17.974;2022-08-06T06:25:33;10.50;;;2.13;;
71475;SDS011;59286;59.274;17.974;2022-08-06T06:31:01;5.28;;;1.30;;
71475;SDS011;59286;59.274;17.974;2022-08-06T06:33:50;8.23;;;1.50;;
71475;SDS011;59286;59.274;17.974;2022-08-06T06:39:39;9.93;;;1.63;;
71475;SDS011;59286;59.274;17.974;2022-08-06T06:42:16;11.52;;;1.63;;
71475;SDS011;59286;59.274;17.974;2022-08-06T06:47:29;8.63;;;1.73;;
71475;SDS011;59286;59.274;17.974;2022-08-06T06:50:30;8.35;;;2.10;;
71475;SDS011;59286;59.274;17.974;2022-08-06T06:52:57;7.60;;;1.70;;
71475;SDS011;59286;59.274;17.974;2022-08-06T06:55:25;11.02;;;1.73;;
71475;SDS011;59286;59.274;17.974;2022-08-06T06:57:51;8.77;;;1.35;;
71475;SDS011;59286;59.274;17.974;2022-08-06T07:00:23;8.23;;;1.70;;
71475;SDS011;59286;59.274;17.974;2022-08-06T07:02:50;6.90;;;1.63;;
71475;SDS011;59286;59.274;17.974;2022-08-06T07:05:18;8.70;;;1.60;;
71475;SDS011;59286;59.274;17.974;2022-08-06T07:07:46;6.72;;;1.40;;
71475;SDS011;59286;59.274;17.974;2022-08-06T07:10:13;8.45;;;1.70;;
71475;SDS011;59286;59.274;17.974;2022-08-06T07:12:42;5.43;;;1.25;;
71475;SDS011;59286;59.274;17.974;2022-08-06T07:15:09;6.90;;;1.67;;
71475;SDS011;59286;59.274;17.974;2022-08-06T07:17:37;8.43;;;1.50;;
71475;SDS011;59286;59.274;17.974;2022-08-06T07:20:07;8.45;;;1.40;;
71475;SDS011;59286;59.274;17.974;2022-08-06T07:22:36;6.95;;;1.42;;
71475;SDS011;59286;59.274;17.974;2022-08-06T07:25:05;6.97;;;1.52;;
71475;SDS011;59286;59.274;17.974;2022-08-06T07:27:35;5.38;;;1.15;;
71475;SDS011;59286;59.274;17.974;2022-08-06T07:30:03;3.67;;;1.15;;
71475;SDS011;59286;59.274;17.974;2022-08-06T07:32:31;8.63;;;1.48;;
71475;SDS011;59286;59.274;17.974;2022-08-06T07:34:59;5.05;;;1.17;;
71475;SDS011;59286;59.274;17.974;2022-08-06T07:37:26;4.60;;;1.00;;
71475;SDS011;59286;59.274;17.974;2022-08-06T07:39:54;5.95;;;1.10;;
71475;SDS011;59286;59.274;17.974;2022-08-06T07:42:21;4.22;;;1.10;;
71475;SDS011;59286;59.274;17.974;2022-08-06T07:44:51;6.25;;;1.27;;
71475;SDS011;59286;59.274;17.974;2022-08-06T07:47:19;4.88;;;0.90;;
71475;SDS011;59286;59.274;17.974;2022-08-06T07:49:53;4.38;;;1.10;;
71475;SDS011;59286;59.274;17.974;2022-08-06T07:52:22;5.78;;;1.02;;
71475;SDS011;59286;59.274;17.974;2022-08-06T07:54:48;4.00;;;0.88;;
71475;SDS011;59286;59.274;17.974;2022-08-06T07:57:15;2.75;;;0.80;;
71475;SDS011;59286;59.274;17.974;2022-08-06T07:59:41;3.47;;;0.80;;
71475;SDS011;59286;59.274;17.974;2022-08-06T08:02:07;2.05;;;0.73;;
71475;SDS011;59286;59.274;17.974;2022-08-06T08:04:35;2.70;;;0.70;;
71475;SDS011;59286;59.274;17.974;2022-08-06T08:07:22;2.13;;;0.77;;
71475;SDS011;59286;59.274;17.974;2022-08-06T08:09:49;4.53;;;1.08;;
71475;SDS011;59286;59.274;17.974;2022-08-06T08:12:16;3.08;;;0.75;;
71475;SDS011;59286;59.274;17.974;2022-08-06T08:14:43;6.35;;;0.80;;
71475;SDS011;59286;59.274;17.974;2022-08-06T08:17:10;4.40;;;0.82;;
71475;SDS011;59286;59.274;17.974;2022-08-06T08:19:36;3.45;;;0.82;;
71475;SDS011;59286;59.274;17.974;2022-08-06T08:24:37;3.85;;;0.80;;
71475;SDS011;59286;59.274;17.974;2022-08-06T08:27:03;2.55;;;0.80;;
71475;SDS011;59286;59.274;17.974;2022-08-06T08:29:33;3.53;;;1.00;;
71475;SDS011;59286;59.274;17.974;2022-08-06T08:31:59;3.67;;;0.90;;
71475;SDS011;59286;59.274;17.974;2022-08-06T08:34:25;2.42;;;0.55;;
71475;SDS011;59286;59.274;17.974;2022-08-06T08:36:51;4.78;;;0.60;;
71475;SDS011;59286;59.274;17.974;2022-08-06T08:39:16;3.80;;;0.60;;
71475;SDS011;59286;59.274;17.974;2022-08-06T08:44:23;2.83;;;0.75;;
71475;SDS011;59286;59.274;17.974;2022-08-06T08:46:51;4.10;;;0.60;;
71475;SDS011;59286;59.274;17.974;2022-08-06T08:49:19;3.40;;;0.60;;
71475;SDS011;59286;59.274;17.974;2022-08-06T08:51:52;2.30;;;0.43;;
71475;SDS011;59286;59.274;17.974;2022-08-06T08:54:21;3.70;;;0.70;;
71475;SDS011;59286;59.274;17.974;2022-08-06T08:56:48;2.45;;;0.43;;
71475;SDS011;59286;59.274;17.974;2022-08-06T08:59:14;1.33;;;0.60;;
71475;SDS011;59286;59.274;17.974;2022-08-06T09:01:40;1.23;;;0.50;;
71475;SDS011;59286;59.274;17.974;2022-08-06T09:04:06;1.73;;;0.50;;
71475;SDS011;59286;59.274;17.974;2022-08-06T09:06:33;1.80;;;0.57;;
71475;SDS011;59286;59.274;17.974;2022-08-06T09:09:02;2.33;;;0.57;;
71475;SDS011;59286;59.274;17.974;2022-08-06T09:11:33;5.10;;;0.45;;
71475;SDS011;59286;59.274;17.974;2022-08-06T09:13:59;1.38;;;0.32;;
71475;SDS011;59286;59.274;17.974;2022-08-06T09:16:29;1.85;;;0.60;;
71475;SDS011;59286;59.274;17.974;2022-08-06T09:18:56;1.85;;;0.40;;
71475;SDS011;59286;59.274;17.974;2022-08-06T09:21:22;1.10;;;0.35;;
71475;SDS011;59286;59.274;17.974;2022-08-06T09:23:47;0.65;;;0.28;;
71475;SDS011;59286;59.274;17.974;2022-08-06T09:26:12;2.72;;;0.30;;
71475;SDS011;59286;59.274;17.974;2022-08-06T09:28:39;0.80;;;0.32;;
71475;SDS011;59286;59.274;17.974;2022-08-06T09:31:12;1.20;;;0.30;;
71475;SDS011;59286;59.274;17.974;2022-08-06T09:33:44;0.73;;;0.20;;
71475;SDS011;59286;59.274;17.974;2022-08-06T09:36:27;0.65;;;0.20;;
71475;SDS011;59286;59.274;17.974;2022-08-06T09:38:54;1.55;;;0.40;;
71475;SDS011;59286;59.274;17.974;2022-08-06T09:41:22;1.90;;;0.30;;
71475;SDS011;59286;59.274;17.974;2022-08-06T09:43:51;2.25;;;0.43;;
71475;SDS011;59286;59.274;17.974;2022-08-06T09:46:34;0.73;;;0.20;;
71475;SDS011;59286;59.274;17.974;2022-08-06T09:49:03;0.32;;;0.15;;
71475;SDS011;59286;59.274;17.974;2022-08-06T09:51:29;2.38;;;0.20;;
71475;SDS011;59286;59.274;17.974;2022-08-06T09:53:58;0.60;;;0.20;;
71475;SDS011;59286;59.274;17.974;2022-08-06T09:56:27;0.40;;;0.10;;
71475;SDS011;59286;59.274;17.974;2022-08-06T09:58:57;1.95;;;0.10;;
71475;SDS011;59286;59.274;17.974;2022-08-06T10:01:24;1.73;;;0.10;;
71475;SDS011;59286;59.274;17.974;2022-08-06T10:03:50;0.63;;;0.30;;
71475;SDS011;59286;59.274;17.974;2022-08-06T10:06:18;0.40;;;0.10;;
71475;SDS011;59286;59.274;17.974;2022-08-06T10:08:47;1.02;;;0.10;;
71475;SDS011;59286;59.274;17.974;2022-08-06T10:11:39;1.23;;;0.10;;
71475;SDS011;59286;59.274;17.974;2022-08-06T10:14:21;2.50;;;0.10;;
71475;SDS011;59286;59.274;17.974;2022-08-06T10:17:04;0.77;;;0.20;;
71475;SDS011;59286;59.274;17.974;2022-08-06T10:19:38;0.45;;;0.03;;
71475;SDS011;59286;59.274;17.974;2022-08-06T10:24:43;0.65;;;0.10;;
71475;SDS011;59286;59.274;17.974;2022-08-06T10:27:11;0.85;;;0.10;;
71475;SDS011;59286;59.274;17.974;2022-08-06T10:29:41;2.17;;;0.10;;
71475;SDS011;59286;59.274;17.974;2022-08-06T10:32:09;0.55;;;0.00;;
71475;SDS011;59286;59.274;17.974;2022-08-06T10:34:40;0.52;;;0.08;;
71475;SDS011;59286;59.274;17.974;2022-08-06T10:37:10;0.75;;;0.10;;
71475;SDS011;59286;59.274;17.974;2022-08-06T10:39:45;2.20;;;0.10;;
71475;SDS011;59286;59.274;17.974;2022-08-06T10:42:20;2.35;;;0.20;;
71475;SDS011;59286;59.274;17.974;2022-08-06T10:44:46;2.63;;;0.20;;
71475;SDS011;59286;59.274;17.974;2022-08-06T10:47:13;0.80;;;0.10;;
71475;SDS011;59286;59.274;17.974;2022-08-06T10:49:39;1.25;;;0.10;;
71475;SDS011;59286;59.274;17.974;2022-08-06T10:52:09;4.47;;;1.15;;
71475;SDS011;59286;59.274;17.974;2022-08-06T10:54:40;4.88;;;0.30;;
71475;SDS011;59286;59.274;17.974;2022-08-06T10:57:08;2.47;;;0.20;;
71475;SDS011;59286;59.274;17.974;2022-08-06T10:59:37;1.77;;;0.10;;
71475;SDS011;59286;59.274;17.974;2022-08-06T11:05:01;0.98;;;0.10;;
71475;SDS011;59286;59.274;17.974;2022-08-06T11:16:23;0.75;;;0.10;;
71475;SDS011;59286;59.274;17.974;2022-08-06T11:21:43;0.17;;;0.00;;
71475;SDS011;59286;59.274;17.974;2022-08-06T11:24:10;0.43;;;0.20;;
71475;SDS011;59286;59.274;17.974;2022-08-06T11:26:38;1.20;;;0.25;;
71475;SDS011;59286;59.274;17.974;2022-08-06T11:29:08;1.95;;;0.65;;
71475;SDS011;59286;59.274;17.974;2022-08-06T11:34:02;1.58;;;0.10;;
71475;SDS011;59286;59.274;17.974;2022-08-06T11:36:42;2.55;;;0.20;;
71475;SDS011;59286;59.274;17.974;2022-08-06T11:39:14;1.15;;;0.20;;
71475;SDS011;59286;59.274;17.974;2022-08-06T11:41:59;2.10;;;0.30;;
71475;SDS011;59286;59.274;17.974;2022-08-06T11:47:15;0.90;;;0.10;;
71475;SDS011;59286;59.274;17.974;2022-08-06T11:49:45;0.30;;;0.10;;
71475;SDS011;59286;59.274;17.974;2022-08-06T11:54:59;0.57;;;0.10;;
71475;SDS011;59286;59.274;17.974;2022-08-06T11:57:30;2.20;;;0.10;;
71475;SDS011;59286;59.274;17.974;2022-08-06T12:05:07;0.85;;;0.10;;
71475;SDS011;59286;59.274;17.974;2022-08-06T12:13:50;2.63;;;0.35;;
71475;SDS011;59286;59.274;17.974;2022-08-06T12:16:26;1.75;;;0.20;;
71475;SDS011;59286;59.274;17.974;2022-08-06T12:18:56;3.42;;;0.20;;
71475;SDS011;59286;59.274;17.974;2022-08-06T12:21:22;0.52;;;0.03;;
71475;SDS011;59286;59.274;17.974;2022-08-06T12:23:50;1.25;;;0.20;;
71475;SDS011;59286;59.274;17.974;2022-08-06T12:26:19;1.80;;;0.47;;
71475;SDS011;59286;59.274;17.974;2022-08-06T12:28:46;2.08;;;0.20;;
71475;SDS011;59286;59.274;17.974;2022-08-06T12:31:13;0.85;;;0.20;;
71475;SDS011;59286;59.274;17.974;2022-08-06T12:33:42;0.45;;;0.10;;
71475;SDS011;59286;59.274;17.974;2022-08-06T12:36:08;0.35;;;0.20;;
71475;SDS011;59286;59.274;17.974;2022-08-06T12:38:34;0.28;;;0.10;;
71475;SDS011;59286;59.274;17.974;2022-08-06T12:41:14;0.43;;;0.10;;
71475;SDS011;59286;59.274;17.974;2022-08-06T12:43:41;0.43;;;0.20;;
71475;SDS011;59286;59.274;17.974;2022-08-06T12:46:12;1.63;;;0.10;;
71475;SDS011;59286;59.274;17.974;2022-08-06T12:48:44;1.05;;;0.30;;
71475;SDS011;59286;59.274;17.974;2022-08-06T12:51:12;0.40;;;0.13;;
71475;SDS011;59286;59.274;17.974;2022-08-06T12:53:53;0.10;;;0.10;;
71475;SDS011;59286;59.274;17.974;2022-08-06T12:56:21;0.38;;;0.10;;
71475;SDS011;59286;59.274;17.974;2022-08-06T12:58:48;0.60;;;0.10;;
71475;SDS011;59286;59.274;17.974;2022-08-06T13:01:22;3.00;;;0.10;;
71475;SDS011;59286;59.274;17.974;2022-08-06T13:03:53;2.17;;;0.20;;
71475;SDS011;59286;59.274;17.974;2022-08-06T13:06:22;0.50;;;0.20;;
71475;SDS011;59286;59.274;17.974;2022-08-06T13:08:49;0.82;;;0.10;;
71475;SDS011;59286;59.274;17.974;2022-08-06T13:11:17;1.40;;;0.43;;
71475;SDS011;59286;59.274;17.974;2022-08-06T13:13:50;1.02;;;0.00;;
71475;SDS011;59286;59.274;17.974;2022-08-06T13:16:17;0.35;;;0.10;;
71475;SDS011;59286;59.274;17.974;2022-08-06T13:19:01;0.90;;;0.17;;
71475;SDS011;59286;59.274;17.974;2022-08-06T13:21:29;0.25;;;0.10;;
71475;SDS011;59286;59.274;17.974;2022-08-06T13:23:54;0.35;;;0.10;;
71475;SDS011;59286;59.274;17.974;2022-08-06T13:26:21;2.15;;;0.00;;
71475;SDS011;59286;59.274;17.974;2022-08-06T13:31:41;0.85;;;0.10;;
71475;SDS011;59286;59.274;17.974;2022-08-06T13:34:16;1.65;;;0.10;;
71475;SDS011;59286;59.274;17.974;2022-08-06T13:36:43;0.10;;;0.10;;
71475;SDS011;59286;59.274;17.974;2022-08-06T13:39:17;0.00;;;0.00;;
71475;SDS011;59286;59.274;17.974;2022-08-06T13:42:01;0.52;;;0.17;;
71475;SDS011;59286;59.274;17.974;2022-08-06T13:44:36;1.33;;;0.30;;
71475;SDS011;59286;59.274;17.974;2022-08-06T13:47:05;0.70;;;0.20;;
71475;SDS011;59286;59.274;17.974;2022-08-06T13:49:31;2.33;;;0.17;;
71475;SDS011;59286;59.274;17.974;2022-08-06T13:51:58;1.23;;;0.20;;
71475;SDS011;59286;59.274;17.974;2022-08-06T13:54:24;0.00;;;0.00;;
71475;SDS011;59286;59.274;17.974;2022-08-06T13:56:50;2.85;;;0.10;;
71475;SDS011;59286;59.274;17.974;2022-08-06T13:59:20;0.13;;;0.10;;
71475;SDS011;59286;59.274;17.974;2022-08-06T14:01:47;1.13;;;0.20;;
71475;SDS011;59286;59.274;17.974;2022-08-06T14:04:14;0.80;;;0.10;;
71475;SDS011;59286;59.274;17.974;2022-08-06T14:06:41;0.73;;;0.10;;
71475;SDS011;59286;59.274;17.974;2022-08-06T14:09:07;0.40;;;0.20;;
71475;SDS011;59286;59.274;17.974;2022-08-06T14:11:32;0.82;;;0.10;;
71475;SDS011;59286;59.274;17.974;2022-08-06T14:13:58;0.88;;;0.10;;
71475;SDS011;59286;59.274;17.974;2022-08-06T14:16:23;0.75;;;0.10;;
71475;SDS011;59286;59.274;17.974;2022-08-06T14:18:48;0.65;;;0.10;;
71475;SDS011;59286;59.274;17.974;2022-08-06T14:21:14;0.40;;;0.10;;
71475;SDS011;59286;59.274;17.974;2022-08-06T14:23:39;0.40;;;0.13;;
71475;SDS011;59286;59.274;17.974;2022-08-06T14:26:05;0.10;;;0.10;;
71475;SDS011;59286;59.274;17.974;2022-08-06T14:28:32;0.88;;;0.10;;
71475;SDS011;59286;59.274;17.974;2022-08-06T14:31:01;1.00;;;0.10;;
71475;SDS011;59286;59.274;17.974;2022-08-06T14:33:28;0.88;;;0.10;;
71475;SDS011;59286;59.274;17.974;2022-08-06T14:35:54;1.13;;;0.10;;
71475;SDS011;59286;59.274;17.974;2022-08-06T14:38:20;1.67;;;0.20;;
71475;SDS011;59286;59.274;17.974;2022-08-06T14:40:45;0.10;;;0.10;;
71475;SDS011;59286;59.274;17.974;2022-08-06T14:43:30;0.68;;;0.13;;
71475;SDS011;59286;59.274;17.974;2022-08-06T14:46:14;0.80;;;0.10;;
71475;SDS011;59286;59.274;17.974;2022-08-06T14:48:39;0.38;;;0.20;;
71475;SDS011;59286;59.274;17.974;2022-08-06T14:51:05;0.80;;;0.10;;
71475;SDS011;59286;59.274;17.974;2022-08-06T14:53:30;0.20;;;0.10;;
71475;SDS011;59286;59.274;17.974;2022-08-06T14:55:55;0.63;;;0.20;;
71475;SDS011;59286;59.274;17.974;2022-08-06T14:58:21;1.58;;;0.10;;
71475;SDS011;59286;59.274;17.974;2022-08-06T15:00:47;0.22;;;0.10;;
71475;SDS011;59286;59.274;17.974;2022-08-06T15:03:13;0.98;;;0.10;;
71475;SDS011;59286;59.274;17.974;2022-08-06T15:05:43;0.25;;;0.20;;
71475;SDS011;59286;59.274;17.974;2022-08-06T15:08:10;0.10;;;0.10;;
71475;SDS011;59286;59.274;17.974;2022-08-06T15:10:35;0.10;;;0.10;;
71475;SDS011;59286;59.274;17.974;2022-08-06T15:13:01;0.98;;;0.25;;
71475;SDS011;59286;59.274;17.974;2022-08-06T15:15:27;1.13;;;0.20;;
71475;SDS011;59286;59.274;17.974;2022-08-06T15:17:53;0.57;;;0.15;;
71475;SDS011;59286;59.274;17.974;2022-08-06T15:20:18;0.25;;;0.13;;
71475;SDS011;59286;59.274;17.974;2022-08-06T15:22:44;1.55;;;0.50;;
71475;SDS011;59286;59.274;17.974;2022-08-06T15:25:09;0.85;;;0.22;;
71475;SDS011;59286;59.274;17.974;2022-08-06T15:27:35;1.60;;;0.25;;
71475;SDS011;59286;59.274;17.974;2022-08-06T15:30:00;0.38;;;0.20;;
71475;SDS011;59286;59.274;17.974;2022-08-06T15:32:26;1.25;;;0.40;;
71475;SDS011;59286;59.274;17.974;2022-08-06T15:34:51;0.47;;;0.10;;
71475;SDS011;59286;59.274;17.974;2022-08-06T15:37:17;0.68;;;0.10;;
71475;SDS011;59286;59.274;17.974;2022-08-06T15:39:45;1.20;;;0.15;;
71475;SDS011;59286;59.274;17.974;2022-08-06T15:42:11;0.20;;;0.10;;
71475;SDS011;59286;59.274;17.974;2022-08-06T15:44:36;1.63;;;0.10;;
71475;SDS011;59286;59.274;17.974;2022-08-06T15:47:03;1.08;;;0.55;;
71475;SDS011;59286;59.274;17.974;2022-08-06T15:49:29;0.82;;;0.20;;
71475;SDS011;59286;59.274;17.974;2022-08-06T15:51:55;0.50;;;0.10;;
71475;SDS011;59286;59.274;17.974;2022-08-06T15:54:21;0.95;;;0.20;;
71475;SDS011;59286;59.274;17.974;2022-08-06T15:56:46;0.30;;;0.10;;
71475;SDS011;59286;59.274;17.974;2022-08-06T15:59:12;0.32;;;0.30;;